Time;durP1;ratioP1;P1;durP2;ratioP2;P2;SDS_P1;SDS_P2;PMS_P1;PMS_P2;Temp;Humidity;BMP_temperature;BMP_pressure;BME280_temperature;BME280_humidity;BME280_pressure;Samples;Min_cycle;Max_cycle;Signal;HPM_P1;HPM_P2
2021/05/15 00:01:05;;;;;;;1.15;0.95;;;12.10;96.10;;;;;;5074864;28;20039;-78
2021/05/15 00:03:31;;;;;;;1.38;0.90;;;12.00;96.60;;;;;;5078123;28;20032;-78
2021/05/15 00:05:57;;;;;;;1.63;1.10;;;12.00;96.50;;;;;;5082265;28;20524;-78
2021/05/15 00:08:23;;;;;;;1.13;0.82;;;12.10;96.10;;;;;;5077674;28;20051;-77
2021/05/15 00:10:52;;;;;;;4.18;1.10;;;12.20;95.60;;;;;;5084088;28;20085;-77
2021/05/15 00:13:18;;;;;;;1.60;1.08;;;12.10;95.70;;;;;;5079923;28;20555;-78
2021/05/15 00:15:46;;;;;;;0.85;0.80;;;12.20;95.70;;;;;;5075543;28;20089;-77
2021/05/15 00:18:11;;;;;;;3.67;1.13;;;12.20;95.40;;;;;;5080099;28;20037;-77
2021/05/15 00:20:37;;;;;;;1.63;0.88;;;12.10;95.70;;;;;;5075302;28;20032;-77
2021/05/15 00:23:03;;;;;;;2.22;0.90;;;12.30;95.10;;;;;;5080603;28;20028;-78
2021/05/15 00:25:29;;;;;;;1.55;1.00;;;12.30;95.10;;;;;;5083414;28;20119;-78
2021/05/15 00:27:54;;;;;;;2.33;0.90;;;12.10;95.40;;;;;;5080703;28;20464;-77
2021/05/15 00:30:20;;;;;;;0.70;0.70;;;12.10;95.50;;;;;;5080455;28;20029;-78
2021/05/15 00:32:46;;;;;;;2.08;0.90;;;12.00;95.80;;;;;;5080299;28;20100;-77
2021/05/15 00:35:13;;;;;;;1.40;0.90;;;12.00;95.90;;;;;;5082089;28;20032;-77
2021/05/15 00:37:39;;;;;;;1.08;0.93;;;12.20;95.40;;;;;;5084874;28;20176;-78
2021/05/15 00:40:07;;;;;;;3.20;1.70;;;12.00;95.90;;;;;;5087563;28;20135;-78
2021/05/15 00:42:34;;;;;;;1.20;0.90;;;11.90;96.50;;;;;;5088432;28;20036;-78
2021/05/15 00:45:00;;;;;;;1.48;1.00;;;11.90;96.70;;;;;;5078921;28;20487;-77
2021/05/15 00:47:26;;;;;;;2.08;1.10;;;12.00;96.80;;;;;;5084136;28;20040;-78
2021/05/15 00:49:52;;;;;;;1.40;0.90;;;11.80;97.00;;;;;;5084448;28;20024;-79
2021/05/15 00:52:19;;;;;;;0.98;0.88;;;11.90;97.00;;;;;;5082007;28;20032;-78
2021/05/15 00:54:47;;;;;;;1.35;0.77;;;11.80;97.40;;;;;;5082046;28;20035;-78
2021/05/15 00:57:13;;;;;;;1.55;1.00;;;11.70;97.80;;;;;;5083814;28;20035;-79
2021/05/15 00:59:40;;;;;;;3.22;0.90;;;11.70;97.90;;;;;;5086552;28;20111;-78
2021/05/15 01:02:09;;;;;;;1.00;0.90;;;11.70;98.20;;;;;;5086768;28;20036;-77
2021/05/15 01:04:36;;;;;;;2.65;1.05;;;11.70;98.40;;;;;;5078096;28;20032;-77
2021/05/15 01:07:03;;;;;;;2.13;0.90;;;11.70;98.80;;;;;;5083225;28;20047;-77
2021/05/15 01:09:33;;;;;;;1.67;1.08;;;11.60;98.90;;;;;;5082732;28;20055;-77
2021/05/15 01:12:04;;;;;;;3.40;1.20;;;11.60;99.20;;;;;;5097419;28;20491;-77
2021/05/15 01:14:31;;;;;;;3.85;1.20;;;11.70;99.00;;;;;;5079755;28;20052;-78
2021/05/15 01:16:56;;;;;;;1.60;1.05;;;11.60;99.20;;;;;;5073352;28;20050;-79
2021/05/15 01:19:22;;;;;;;2.85;1.10;;;11.60;99.80;;;;;;5074634;28;20119;-77
2021/05/15 01:21:48;;;;;;;2.88;1.30;;;11.80;99.60;;;;;;5081416;28;20483;-77
2021/05/15 01:24:13;;;;;;;3.47;1.70;;;11.60;99.90;;;;;;5076304;28;20042;-76
2021/05/15 01:26:42;;;;;;;2.15;1.30;;;11.70;99.80;;;;;;5082391;28;20056;-78
2021/05/15 01:29:07;;;;;;;3.33;1.70;;;11.70;99.90;;;;;;5078230;28;20478;-77
2021/05/15 01:31:39;;;;;;;6.68;1.98;;;11.80;99.90;;;;;;5080032;28;20063;-77
2021/05/15 01:34:06;;;;;;;3.00;1.95;;;11.80;99.90;;;;;;5078090;28;20058;-76
2021/05/15 01:36:39;;;;;;;2.00;1.65;;;11.80;99.90;;;;;;5081166;28;20032;-78
2021/05/15 01:39:06;;;;;;;3.38;2.00;;;11.60;99.90;;;;;;5078969;28;20032;-79
2021/05/15 01:41:31;;;;;;;3.30;2.20;;;11.50;99.90;;;;;;5081055;28;20037;-78
2021/05/15 01:43:58;;;;;;;5.43;2.20;;;11.50;99.90;;;;;;5079487;28;20074;-78
2021/05/15 01:46:26;;;;;;;4.68;2.45;;;11.70;99.90;;;;;;5074118;28;20403;-78
2021/05/15 01:48:52;;;;;;;3.40;2.20;;;11.60;99.90;;;;;;5079619;28;20040;-77
2021/05/15 01:51:18;;;;;;;3.45;2.10;;;11.50;99.90;;;;;;5076465;28;20024;-77
2021/05/15 01:53:47;;;;;;;2.72;2.05;;;11.60;99.90;;;;;;5081158;28;20040;-78
2021/05/15 01:56:17;;;;;;;2.53;1.95;;;11.60;99.90;;;;;;5079916;28;20165;-78
2021/05/15 01:58:43;;;;;;;2.27;1.73;;;11.50;99.90;;;;;;5079749;28;20074;-77
2021/05/15 02:01:09;;;;;;;3.17;1.98;;;11.30;99.90;;;;;;5080359;28;20040;-77
2021/05/15 02:03:36;;;;;;;3.92;2.05;;;11.20;99.90;;;;;;5074813;28;20028;-78
2021/05/15 02:06:03;;;;;;;7.03;1.92;;;11.40;99.90;;;;;;5072916;28;20032;-77
2021/05/15 02:08:29;;;;;;;2.30;1.90;;;11.40;99.90;;;;;;5086467;28;20386;-78
2021/05/15 02:10:57;;;;;;;3.13;2.20;;;11.30;99.90;;;;;;5082350;28;20036;-78
2021/05/15 02:13:27;;;;;;;3.90;1.70;;;11.20;99.90;;;;;;5083867;28;20032;-78
2021/05/15 02:15:55;;;;;;;3.15;1.60;;;11.20;99.90;;;;;;5085345;28;20038;-79
2021/05/15 02:18:22;;;;;;;2.13;1.70;;;11.30;99.90;;;;;;5077980;28;20472;-78
2021/05/15 02:20:51;;;;;;;2.22;1.77;;;11.40;99.90;;;;;;5083973;28;20068;-77
2021/05/15 02:23:18;;;;;;;2.30;1.70;;;11.50;99.90;;;;;;5083244;28;20067;-78
2021/05/15 02:25:47;;;;;;;2.13;1.60;;;11.50;99.90;;;;;;5077828;28;20490;-77
2021/05/15 02:28:17;;;;;;;1.55;1.33;;;11.50;99.90;;;;;;5084277;28;20040;-78
2021/05/15 02:30:43;;;;;;;2.97;1.80;;;11.50;99.90;;;;;;5063119;28;20028;-78
2021/05/15 02:33:13;;;;;;;3.80;1.40;;;11.50;99.90;;;;;;5085517;28;20070;-78
2021/05/15 02:35:41;;;;;;;3.63;1.65;;;11.40;99.90;;;;;;5081715;28;20040;-77
2021/05/15 02:38:15;;;;;;;5.63;1.42;;;11.40;99.90;;;;;;5079286;28;20956;-79
2021/05/15 02:40:42;;;;;;;2.67;1.73;;;11.50;99.90;;;;;;5082323;28;20040;-77
2021/05/15 02:43:08;;;;;;;2.83;1.90;;;11.50;99.90;;;;;;5075595;28;20109;-77
2021/05/15 02:45:36;;;;;;;5.65;1.58;;;11.50;99.90;;;;;;5094060;28;20033;-77
2021/05/15 02:48:03;;;;;;;4.30;1.80;;;11.40;99.90;;;;;;5083500;28;20043;-78
2021/05/15 02:50:29;;;;;;;4.13;1.80;;;11.40;99.90;;;;;;5075087;28;20035;-77
2021/05/15 02:52:55;;;;;;;3.15;1.73;;;11.30;99.90;;;;;;5082221;28;20032;-77
2021/05/15 02:55:24;;;;;;;3.13;2.00;;;11.30;99.90;;;;;;5081831;28;20028;-77
2021/05/15 02:57:51;;;;;;;3.75;1.98;;;11.40;99.90;;;;;;5073406;28;20035;-77
2021/05/15 03:00:20;;;;;;;3.95;1.83;;;11.30;99.90;;;;;;5079109;28;20051;-77
2021/05/15 03:02:47;;;;;;;2.22;1.48;;;11.40;99.90;;;;;;5065120;28;20181;-78
2021/05/15 03:05:14;;;;;;;2.70;1.77;;;11.30;99.90;;;;;;5085743;28;20094;-78
2021/05/15 03:07:40;;;;;;;3.45;1.98;;;11.30;99.90;;;;;;5079171;28;20058;-78
2021/05/15 03:10:07;;;;;;;2.15;1.50;;;11.20;99.90;;;;;;5083009;28;20052;-78
2021/05/15 03:12:34;;;;;;;2.50;1.80;;;11.20;99.90;;;;;;5082297;28;20032;-77
2021/05/15 03:15:00;;;;;;;3.17;1.67;;;11.20;99.90;;;;;;5086027;28;20028;-78
2021/05/15 03:17:25;;;;;;;4.07;1.70;;;11.40;99.90;;;;;;5076073;28;20085;-79
2021/05/15 03:19:53;;;;;;;2.17;1.70;;;11.50;99.90;;;;;;5077565;28;20047;-77
2021/05/15 03:22:24;;;;;;;2.72;1.80;;;11.50;99.90;;;;;;5076154;28;20035;-78
2021/05/15 03:24:50;;;;;;;2.92;1.67;;;11.50;99.90;;;;;;5076704;28;20032;-78
2021/05/15 03:27:16;;;;;;;3.25;1.65;;;11.40;99.90;;;;;;5081486;28;20040;-77
2021/05/15 03:29:42;;;;;;;2.15;1.60;;;11.30;99.90;;;;;;5077186;28;20102;-77
2021/05/15 03:32:09;;;;;;;3.95;1.80;;;11.40;99.90;;;;;;5079584;28;20071;-78
2021/05/15 03:34:35;;;;;;;3.80;1.58;;;11.60;99.90;;;;;;5080483;28;20466;-77
2021/05/15 03:37:01;;;;;;;4.13;2.00;;;11.20;99.90;;;;;;5088374;28;20064;-76
2021/05/15 03:39:27;;;;;;;2.85;1.80;;;11.30;99.90;;;;;;5077027;28;20037;-78
2021/05/15 03:41:53;;;;;;;1.70;1.08;;;11.30;99.90;;;;;;5081017;28;20036;-78
2021/05/15 03:44:22;;;;;;;1.90;1.50;;;11.10;99.90;;;;;;5082972;28;20042;-78
2021/05/15 03:46:48;;;;;;;2.55;1.52;;;11.10;99.90;;;;;;5085003;28;20394;-77
2021/05/15 03:49:15;;;;;;;2.97;1.50;;;11.10;99.90;;;;;;5078794;28;20028;-77
2021/05/15 03:51:41;;;;;;;2.15;1.45;;;11.10;99.90;;;;;;5081306;28;20025;-78
2021/05/15 03:54:11;;;;;;;3.97;1.70;;;11.20;99.90;;;;;;5085093;28;20043;-77
2021/05/15 03:56:37;;;;;;;3.20;1.75;;;11.30;99.90;;;;;;5073712;28;20460;-77
2021/05/15 03:59:03;;;;;;;4.88;1.63;;;11.30;99.90;;;;;;5083153;28;20032;-78
2021/05/15 04:01:29;;;;;;;2.50;1.60;;;11.40;99.90;;;;;;5082165;28;20151;-79
2021/05/15 04:03:57;;;;;;;2.25;1.40;;;11.30;99.90;;;;;;5076194;28;20043;-78
2021/05/15 04:06:23;;;;;;;2.90;1.42;;;11.30;99.90;;;;;;5082679;28;20033;-77
2021/05/15 04:08:48;;;;;;;1.83;1.30;;;11.20;99.90;;;;;;5085549;28;20032;-78
2021/05/15 04:11:14;;;;;;;3.25;1.60;;;11.30;99.90;;;;;;5084081;28;20025;-78
2021/05/15 04:16:30;;;;;;;3.80;1.50;;;11.20;99.90;;;;;;5079359;28;20053;-79
2021/05/15 04:18:56;;;;;;;2.75;1.50;;;11.20;99.90;;;;;;5094286;28;20047;-78
2021/05/15 04:21:22;;;;;;;3.63;1.30;;;11.40;99.90;;;;;;5082363;28;20029;-79
2021/05/15 04:23:47;;;;;;;3.97;1.35;;;11.40;99.90;;;;;;5082949;28;20044;-78
2021/05/15 04:26:13;;;;;;;2.42;1.60;;;11.50;99.90;;;;;;5084996;28;20062;-78
2021/05/15 04:28:42;;;;;;;1.95;1.25;;;11.40;99.90;;;;;;5082112;28;20126;-78
2021/05/15 04:31:07;;;;;;;3.35;1.50;;;11.40;99.90;;;;;;5082430;28;20387;-78
2021/05/15 04:33:36;;;;;;;3.92;1.33;;;11.40;99.90;;;;;;5087464;28;20047;-77
2021/05/15 04:36:02;;;;;;;2.08;1.60;;;11.40;99.90;;;;;;5081625;28;20497;-77
2021/05/15 04:38:35;;;;;;;1.33;1.20;;;11.50;99.90;;;;;;5084560;28;20028;-77
2021/05/15 04:41:01;;;;;;;1.85;1.10;;;11.70;99.90;;;;;;5085185;28;20064;-78
2021/05/15 04:43:27;;;;;;;4.32;2.08;;;11.70;99.90;;;;;;5078759;28;20472;-78
2021/05/15 04:45:55;;;;;;;3.35;1.27;;;11.60;99.90;;;;;;5086281;28;20059;-76
2021/05/15 04:48:24;;;;;;;2.67;1.00;;;11.80;99.90;;;;;;5085485;28;20123;-76
2021/05/15 04:50:50;;;;;;;2.33;1.30;;;11.70;99.90;;;;;;5087131;28;20586;-76
2021/05/15 04:53:16;;;;;;;3.22;1.58;;;11.70;99.90;;;;;;5083567;28;20463;-77
2021/05/15 04:55:42;;;;;;;1.55;1.20;;;11.60;99.90;;;;;;5087810;28;20044;-76
2021/05/15 04:58:07;;;;;;;2.53;1.40;;;11.70;99.90;;;;;;5080634;28;20460;-75
2021/05/15 05:00:33;;;;;;;2.80;1.58;;;11.70;99.90;;;;;;5079409;28;20033;-76
2021/05/15 05:02:58;;;;;;;2.13;1.10;;;11.70;99.90;;;;;;5083624;28;20446;-76
2021/05/15 05:05:24;;;;;;;4.22;1.30;;;11.80;99.90;;;;;;5076558;28;20154;-76
2021/05/15 05:07:51;;;;;;;5.82;1.60;;;11.70;99.90;;;;;;5087138;28;20028;-76
2021/05/15 05:10:17;;;;;;;3.10;1.17;;;11.90;99.90;;;;;;5083419;28;20043;-77
2021/05/15 05:12:43;;;;;;;2.17;1.48;;;11.80;99.90;;;;;;5089317;28;20049;-77
2021/05/15 05:15:09;;;;;;;1.75;1.13;;;11.90;99.90;;;;;;5083300;28;20099;-76
2021/05/15 05:17:34;;;;;;;2.22;1.20;;;11.90;99.90;;;;;;5077571;28;20069;-77
2021/05/15 05:20:00;;;;;;;1.95;1.40;;;12.10;99.70;;;;;;5088735;28;20060;-74
2021/05/15 05:22:26;;;;;;;2.40;1.40;;;12.10;99.10;;;;;;5083914;28;20471;-76
2021/05/15 05:24:54;;;;;;;3.05;1.17;;;12.10;99.00;;;;;;5079352;28;20062;-75
2021/05/15 05:27:22;;;;;;;6.13;1.73;;;12.20;98.70;;;;;;5076629;28;20036;-76
2021/05/15 05:29:47;;;;;;;6.75;1.38;;;11.90;99.00;;;;;;5077494;28;20466;-76
2021/05/15 05:32:21;;;;;;;3.88;1.52;;;12.10;98.80;;;;;;5074049;28;20040;-77
2021/05/15 05:34:46;;;;;;;3.40;1.50;;;12.30;97.90;;;;;;5081806;28;20028;-76
2021/05/15 05:37:12;;;;;;;3.88;1.60;;;12.30;98.20;;;;;;5084826;28;20074;-77
2021/05/15 05:39:41;;;;;;;1.55;1.20;;;12.60;97.10;;;;;;5087268;28;20422;-76
2021/05/15 05:42:09;;;;;;;3.35;1.33;;;12.70;96.50;;;;;;5083139;28;20050;-77
2021/05/15 05:44:35;;;;;;;5.03;1.42;;;13.10;96.30;;;;;;5074309;28;20550;-76
2021/05/15 05:47:01;;;;;;;4.25;1.30;;;13.00;95.80;;;;;;5082056;28;20147;-77
2021/05/15 05:49:26;;;;;;;1.98;1.35;;;13.00;95.30;;;;;;5080416;28;20024;-76
2021/05/15 05:51:52;;;;;;;1.52;1.30;;;13.30;94.30;;;;;;5080561;28;20029;-76
2021/05/15 05:54:18;;;;;;;3.83;1.50;;;13.10;93.80;;;;;;5078369;28;20706;-75
2021/05/15 05:56:46;;;;;;;1.42;1.23;;;13.20;93.80;;;;;;5085562;28;20427;-77
2021/05/15 05:59:15;;;;;;;2.42;1.40;;;13.20;93.30;;;;;;5081368;28;20039;-75
2021/05/15 06:01:41;;;;;;;2.65;1.50;;;13.20;93.20;;;;;;5082815;28;20085;-76
2021/05/15 06:04:07;;;;;;;2.08;1.60;;;12.90;92.90;;;;;;5078606;28;20509;-75
2021/05/15 06:06:33;;;;;;;1.70;1.40;;;12.90;93.40;;;;;;5077713;28;20029;-76
2021/05/15 06:08:59;;;;;;;1.88;1.08;;;13.00;93.00;;;;;;5079104;28;20115;-77
2021/05/15 06:11:25;;;;;;;2.83;1.25;;;12.90;93.00;;;;;;5072738;28;20146;-77
2021/05/15 06:13:51;;;;;;;3.38;1.55;;;12.80;93.10;;;;;;5078187;28;20515;-75
2021/05/15 06:16:17;;;;;;;4.43;1.63;;;12.90;93.00;;;;;;5082214;28;20562;-77
2021/05/15 06:18:43;;;;;;;8.70;1.50;;;12.90;93.10;;;;;;5080305;28;20119;-75
2021/05/15 06:21:09;;;;;;;2.25;1.17;;;12.90;93.20;;;;;;5079772;28;20422;-76
2021/05/15 06:23:34;;;;;;;1.35;1.10;;;12.90;93.20;;;;;;5073347;28;20073;-76
2021/05/15 06:26:02;;;;;;;1.98;1.35;;;12.70;93.80;;;;;;5081901;28;20032;-76
2021/05/15 06:28:28;;;;;;;2.80;1.30;;;12.70;93.80;;;;;;5080613;28;20398;-76
2021/05/15 06:30:53;;;;;;;2.13;1.40;;;12.60;93.90;;;;;;5083200;28;20039;-76
2021/05/15 06:33:19;;;;;;;2.10;1.40;;;12.70;94.00;;;;;;5081521;28;20123;-75
2021/05/15 06:35:45;;;;;;;3.45;1.38;;;12.90;93.50;;;;;;5079522;28;20045;-75
2021/05/15 06:38:10;;;;;;;2.05;1.30;;;13.10;93.00;;;;;;5077411;28;20029;-76
2021/05/15 06:40:42;;;;;;;1.73;1.23;;;13.20;92.60;;;;;;5081668;28;20028;-77
2021/05/15 06:43:08;;;;;;;2.65;1.30;;;13.20;92.50;;;;;;5099782;28;20488;-77
2021/05/15 06:45:34;;;;;;;2.63;1.13;;;13.30;92.20;;;;;;5083573;28;20032;-76
2021/05/15 06:47:59;;;;;;;1.98;1.20;;;13.30;92.00;;;;;;5081822;28;20036;-76
2021/05/15 06:50:25;;;;;;;2.17;1.20;;;13.40;91.90;;;;;;5073682;28;20031;-75
2021/05/15 06:52:51;;;;;;;5.47;1.50;;;13.30;91.50;;;;;;5075377;28;20028;-76
2021/05/15 06:55:20;;;;;;;1.20;1.05;;;13.10;92.30;;;;;;5080925;28;20051;-78
2021/05/15 06:57:46;;;;;;;2.05;0.95;;;13.00;92.30;;;;;;5075193;28;20554;-76
2021/05/15 07:00:12;;;;;;;2.50;1.10;;;13.10;92.40;;;;;;5081031;28;20131;-76
2021/05/15 07:02:38;;;;;;;2.70;1.08;;;13.10;92.10;;;;;;5084223;28;20041;-76
2021/05/15 07:05:04;;;;;;;3.70;1.50;;;13.20;92.20;;;;;;5080889;28;20036;-76
2021/05/15 07:07:30;;;;;;;1.58;1.05;;;13.00;92.70;;;;;;5085285;28;20037;-76
2021/05/15 07:09:55;;;;;;;2.08;1.30;;;13.20;92.70;;;;;;5084998;28;20119;-77
2021/05/15 07:12:24;;;;;;;2.72;1.40;;;13.30;92.30;;;;;;5076556;28;20044;-76
2021/05/15 07:14:51;;;;;;;1.80;1.27;;;13.30;92.70;;;;;;5080624;28;20049;-76
2021/05/15 07:17:24;;;;;;;3.13;1.50;;;13.00;93.90;;;;;;5079376;28;20047;-76
2021/05/15 07:19:53;;;;;;;2.40;1.33;;;13.00;95.30;;;;;;5078167;28;20037;-75
2021/05/15 07:22:24;;;;;;;3.63;1.30;;;13.00;97.20;;;;;;5076239;28;20032;-76
2021/05/15 07:24:55;;;;;;;1.73;1.30;;;13.10;98.00;;;;;;5084068;28;20040;-76
2021/05/15 07:27:22;;;;;;;1.90;1.20;;;13.20;97.80;;;;;;5079663;28;20037;-77
2021/05/15 07:29:53;;;;;;;2.78;1.55;;;13.20;97.40;;;;;;5080269;28;20234;-77
2021/05/15 07:32:20;;;;;;;1.85;1.30;;;13.50;97.30;;;;;;5077076;28;20093;-75
2021/05/15 07:34:47;;;;;;;2.83;1.48;;;13.50;97.00;;;;;;5077118;28;20431;-75
2021/05/15 07:37:15;;;;;;;3.60;1.40;;;13.70;96.80;;;;;;5078485;28;20365;-76
2021/05/15 07:39:41;;;;;;;1.40;1.20;;;13.70;96.00;;;;;;5079928;28;20111;-75
2021/05/15 07:42:08;;;;;;;2.08;1.35;;;13.90;95.10;;;;;;5088024;28;20039;-75
2021/05/15 07:44:37;;;;;;;3.38;1.45;;;14.00;95.40;;;;;;5059980;28;20418;-77
2021/05/15 07:47:03;;;;;;;3.70;1.50;;;14.20;95.50;;;;;;5076507;28;20036;-77
2021/05/15 07:49:29;;;;;;;3.13;1.50;;;14.00;95.70;;;;;;5078890;28;20028;-77
2021/05/15 07:51:55;;;;;;;2.45;1.52;;;14.10;95.90;;;;;;5078287;28;20345;-77
2021/05/15 07:54:22;;;;;;;2.85;1.67;;;13.90;95.70;;;;;;5073711;28;20154;-77
2021/05/15 07:56:49;;;;;;;2.55;1.20;;;13.40;95.70;;;;;;5080970;28;20119;-77
2021/05/15 07:59:15;;;;;;;2.10;1.40;;;13.40;97.10;;;;;;5079568;28;20031;-76
2021/05/15 08:01:44;;;;;;;1.50;1.40;;;13.30;97.30;;;;;;5080674;28;20531;-77
2021/05/15 08:04:12;;;;;;;1.33;1.20;;;13.50;96.90;;;;;;5076625;28;20040;-77
2021/05/15 08:06:40;;;;;;;1.85;1.55;;;13.70;96.50;;;;;;5079872;28;20541;-77
2021/05/15 08:09:08;;;;;;;1.75;1.40;;;14.20;96.00;;;;;;5078162;28;20032;-76
2021/05/15 08:11:35;;;;;;;4.45;1.35;;;14.50;95.20;;;;;;5079370;28;20123;-78
2021/05/15 08:14:04;;;;;;;1.70;1.40;;;14.70;94.00;;;;;;5078774;28;20111;-76
2021/05/15 08:16:31;;;;;;;2.28;1.35;;;14.60;93.60;;;;;;5072469;28;20115;-77
2021/05/15 08:18:57;;;;;;;4.15;1.13;;;14.20;93.20;;;;;;5085442;28;20139;-76
2021/05/15 08:21:23;;;;;;;2.33;1.50;;;14.00;94.10;;;;;;5082816;28;20136;-77
2021/05/15 08:23:50;;;;;;;2.03;1.20;;;14.20;94.60;;;;;;5076771;28;20485;-77
2021/05/15 08:26:16;;;;;;;3.30;1.38;;;14.20;94.40;;;;;;5083196;28;20635;-76
2021/05/15 08:28:45;;;;;;;2.17;1.20;;;14.30;93.40;;;;;;5077544;28;20039;-78
2021/05/15 08:31:11;;;;;;;5.60;1.38;;;14.00;92.90;;;;;;5072451;28;20479;-76
2021/05/15 08:33:37;;;;;;;1.23;1.10;;;13.90;93.40;;;;;;5078699;28;20032;-77
2021/05/15 08:36:05;;;;;;;2.70;1.42;;;14.10;93.50;;;;;;5074372;28;20040;-76
2021/05/15 08:38:30;;;;;;;4.25;1.15;;;14.30;92.60;;;;;;5079370;28;20040;-76
2021/05/15 08:40:56;;;;;;;1.60;1.20;;;14.60;92.50;;;;;;5081258;28;20467;-76
2021/05/15 08:43:24;;;;;;;1.33;1.15;;;14.80;91.40;;;;;;5075317;28;20479;-76
2021/05/15 08:45:53;;;;;;;1.85;1.20;;;14.80;91.20;;;;;;5079773;28;20056;-78
2021/05/15 08:48:20;;;;;;;7.27;1.30;;;14.40;90.00;;;;;;5088476;28;20058;-78
2021/05/15 08:50:46;;;;;;;4.43;1.42;;;14.60;90.70;;;;;;5083938;28;20105;-77
2021/05/15 08:53:13;;;;;;;2.42;1.42;;;14.40;91.20;;;;;;5077572;28;20074;-78
2021/05/15 08:55:39;;;;;;;1.20;1.10;;;14.70;90.20;;;;;;5083934;28;20036;-78
2021/05/15 08:58:06;;;;;;;2.00;1.40;;;14.70;90.80;;;;;;5078454;28;20121;-77
2021/05/15 09:00:41;;;;;;;2.95;1.40;;;14.80;90.50;;;;;;5083622;28;20037;-78
2021/05/15 09:03:10;;;;;;;1.73;1.50;;;14.80;90.40;;;;;;5084177;28;20044;-79
2021/05/15 09:05:41;;;;;;;2.42;1.30;;;15.00;90.00;;;;;;5080464;28;20487;-77
2021/05/15 09:08:11;;;;;;;2.35;1.42;;;15.10;90.00;;;;;;5078708;28;20048;-76
2021/05/15 09:10:41;;;;;;;3.00;1.42;;;15.20;88.90;;;;;;5084675;28;20066;-76
2021/05/15 09:13:15;;;;;;;4.18;1.60;;;15.10;89.90;;;;;;5077984;28;20063;-78
2021/05/15 09:15:58;;;;;;;1.73;1.25;;;14.90;88.40;;;;;;5077797;28;20048;-76
2021/05/15 09:18:39;;;;;;;5.10;1.23;;;14.50;89.20;;;;;;5083131;28;20101;-75
2021/05/15 09:21:13;;;;;;;1.70;1.20;;;14.50;88.70;;;;;;5087923;28;20052;-76
2021/05/15 09:23:45;;;;;;;9.90;1.23;;;14.80;87.70;;;;;;5079039;28;20121;-76
2021/05/15 09:26:24;;;;;;;2.85;1.40;;;14.80;87.30;;;;;;5085473;28;20451;-76
2021/05/15 09:29:02;;;;;;;4.13;1.42;;;14.50;88.20;;;;;;5096264;27;20078;-77
2021/05/15 09:31:40;;;;;;;1.80;1.08;;;14.50;89.50;;;;;;5082411;28;20097;-77
2021/05/15 09:34:08;;;;;;;5.68;1.30;;;14.60;88.80;;;;;;5099827;27;20059;-76
2021/05/15 09:36:44;;;;;;;3.75;1.30;;;14.60;89.00;;;;;;5084926;28;20075;-76
2021/05/15 09:39:17;;;;;;;3.25;1.30;;;14.50;89.60;;;;;;5082722;28;20434;-76
2021/05/15 09:41:52;;;;;;;5.50;1.38;;;14.80;88.10;;;;;;5090377;28;20555;-77
2021/05/15 09:44:25;;;;;;;3.55;1.50;;;15.40;86.80;;;;;;5079339;28;20540;-79
2021/05/15 09:46:54;;;;;;;4.00;1.27;;;16.10;83.60;;;;;;5092105;28;20056;-76
2021/05/15 09:49:29;;;;;;;1.50;1.15;;;16.00;82.20;;;;;;5083628;28;20072;-76
2021/05/15 09:52:15;;;;;;;3.90;1.67;;;16.10;80.40;;;;;;5081593;28;20112;-77
2021/05/15 09:54:50;;;;;;;1.45;1.30;;;16.10;81.00;;;;;;5082008;28;20056;-77
2021/05/15 09:57:17;;;;;;;3.10;1.25;;;16.40;80.50;;;;;;5076878;28;20091;-71
2021/05/15 09:59:50;;;;;;;1.90;1.40;;;15.70;81.00;;;;;;5076479;28;20067;-76
2021/05/15 10:02:19;;;;;;;2.13;1.27;;;15.70;82.90;;;;;;5081684;28;20117;-74
2021/05/15 10:04:51;;;;;;;1.80;1.30;;;16.00;81.70;;;;;;5076580;28;20198;-77
2021/05/15 10:07:20;;;;;;;2.63;1.20;;;15.90;81.10;;;;;;5080012;28;20055;-75
2021/05/15 10:09:51;;;;;;;4.50;1.45;;;15.50;82.80;;;;;;5085632;28;20040;-78
2021/05/15 10:12:22;;;;;;;;;;;15.40;82.70;;;;;;5087719;28;20044;-77
2021/05/15 10:14:50;;;;;;;4.60;1.30;;;15.20;82.30;;;;;;5088714;28;19928;-75
2021/05/15 10:17:17;;;;;;;3.10;1.45;;;14.90;82.10;;;;;;5090332;28;20071;-78
2021/05/15 10:19:44;;;;;;;3.42;1.40;;;15.00;82.10;;;;;;5070654;28;20051;-78
2021/05/15 10:22:22;;;;;;;3.05;1.50;;;14.90;82.00;;;;;;5082345;28;20218;-78
2021/05/15 10:24:50;;;;;;;2.78;1.60;;;14.90;83.10;;;;;;5086396;28;20102;-78
2021/05/15 10:27:17;;;;;;;2.28;0.98;;;14.70;88.00;;;;;;5088269;28;20139;-77
2021/05/15 10:29:51;;;;;;;8.77;1.23;;;13.80;92.70;;;;;;5082548;28;20097;-77
2021/05/15 10:32:30;;;;;;;4.30;0.90;;;11.10;99.90;;;;;;5090313;28;20044;-78
2021/05/15 10:35:06;;;;;;;1.98;0.80;;;10.60;99.90;;;;;;5087626;28;20084;-78
2021/05/15 10:37:46;;;;;;;1.75;0.73;;;10.40;99.90;;;;;;5087071;28;20052;-79
2021/05/15 10:40:21;;;;;;;3.10;1.15;;;10.80;99.90;;;;;;5100722;27;20052;-78
2021/05/15 10:43:13;;;;;;;3.25;1.30;;;11.10;99.90;;;;;;5086409;28;20051;-79
2021/05/15 10:45:43;;;;;;;3.75;1.10;;;11.50;99.90;;;;;;5087075;28;20052;-78
2021/05/15 10:48:23;;;;;;;2.33;0.98;;;11.80;99.90;;;;;;5089759;28;20093;-79
2021/05/15 10:50:52;;;;;;;1.20;0.90;;;12.00;99.90;;;;;;5087266;28;20052;-79
2021/05/15 10:53:28;;;;;;;3.83;1.10;;;12.30;99.90;;;;;;5095580;27;20044;-78
2021/05/15 10:56:17;;;;;;;4.88;1.20;;;12.80;99.90;;;;;;5088450;28;20052;-77
2021/05/15 10:58:50;;;;;;;2.72;0.90;;;12.80;99.90;;;;;;5086477;28;20040;-77
2021/05/15 11:01:18;;;;;;;1.98;1.30;;;12.70;99.90;;;;;;5084693;28;20119;-78
2021/05/15 11:03:47;;;;;;;2.85;1.08;;;13.20;99.90;;;;;;5088937;28;20054;-77
2021/05/15 11:06:20;;;;;;;2.63;1.30;;;13.30;99.90;;;;;;5084155;28;20078;-76
2021/05/15 11:09:04;;;;;;;1.75;1.10;;;13.70;99.90;;;;;;5082925;28;20681;-76
2021/05/15 11:11:39;;;;;;;2.05;1.00;;;13.80;99.90;;;;;;5084133;28;20051;-77
2021/05/15 11:14:25;;;;;;;3.60;1.15;;;14.00;99.90;;;;;;5088117;28;20067;-80
2021/05/15 11:17:10;;;;;;;4.30;1.35;;;13.80;99.90;;;;;;5085683;28;20073;-80
2021/05/15 11:19:39;;;;;;;5.65;1.50;;;14.20;99.90;;;;;;5084767;28;21269;-80
2021/05/15 11:22:20;;;;;;;4.13;1.75;;;14.20;99.90;;;;;;5086178;28;20056;-80
2021/05/15 11:24:56;;;;;;;4.15;2.33;;;14.30;99.90;;;;;;5085946;28;20131;-80
2021/05/15 11:27:32;;;;;;;4.47;2.08;;;14.50;99.90;;;;;;5086425;28;20559;-76
2021/05/15 11:30:12;;;;;;;4.03;1.75;;;14.60;99.90;;;;;;5084165;28;20048;-76
2021/05/15 11:32:39;;;;;;;4.65;2.00;;;14.60;99.90;;;;;;5085198;28;20075;-75
2021/05/15 11:35:08;;;;;;;4.65;1.60;;;14.70;99.90;;;;;;5087319;28;20063;-73
2021/05/15 11:37:35;;;;;;;6.70;1.90;;;14.70;99.90;;;;;;5083706;28;20059;-73
2021/05/15 11:40:03;;;;;;;3.25;1.40;;;15.00;99.90;;;;;;5083957;28;20076;-73
2021/05/15 11:42:32;;;;;;;3.72;1.58;;;15.20;99.90;;;;;;5083796;28;20049;-71
2021/05/15 11:45:14;;;;;;;3.17;1.45;;;15.40;99.60;;;;;;5084415;28;20059;-72
2021/05/15 11:47:41;;;;;;;4.72;1.67;;;15.50;97.60;;;;;;5084378;28;20113;-72
2021/05/15 11:50:10;;;;;;;2.88;1.42;;;15.60;95.10;;;;;;5084686;28;20127;-73
2021/05/15 11:52:38;;;;;;;8.32;1.30;;;15.60;95.30;;;;;;5080882;28;20048;-72
2021/05/15 11:55:07;;;;;;;2.67;1.07;;;15.50;89.50;;;;;;5087501;28;20052;-72
2021/05/15 11:57:34;;;;;;;2.28;1.10;;;15.40;88.80;;;;;;5084053;28;20075;-73
2021/05/15 12:00:16;;;;;;;8.25;1.15;;;15.20;90.30;;;;;;5086055;28;20055;-75
2021/05/15 12:02:46;;;;;;;3.45;1.02;;;11.80;99.90;;;;;;5080832;28;20471;-75
2021/05/15 12:05:18;;;;;;;6.15;1.20;;;10.00;99.90;;;;;;5084347;28;20138;-72
2021/05/15 12:07:52;;;;;;;6.10;1.00;;;10.20;99.90;;;;;;5084611;28;21358;-78
2021/05/15 12:10:25;;;;;;;8.07;2.80;;;10.40;99.90;;;;;;5087266;28;20517;-73
2021/05/15 12:13:02;;;;;;;12.63;5.30;;;10.60;99.90;;;;;;5083982;28;20052;-78
2021/05/15 12:15:31;;;;;;;3.13;1.50;;;10.70;99.90;;;;;;5084661;28;20074;-73
2021/05/15 12:17:59;;;;;;;5.82;2.60;;;10.60;99.90;;;;;;5094393;28;20079;-75
2021/05/15 12:20:42;;;;;;;36.08;14.27;;;11.00;99.90;;;;;;5084813;28;20072;-74
2021/05/15 12:23:22;;;;;;;10.18;4.35;;;11.30;99.90;;;;;;5091055;28;20056;-83
2021/05/15 12:26:00;;;;;;;5.38;2.63;;;10.90;99.90;;;;;;5089978;28;20697;-82
2021/05/15 12:28:32;;;;;;;17.13;7.72;;;11.10;99.90;;;;;;5090322;28;20051;-77
2021/05/15 12:31:03;;;;;;;6.78;2.35;;;11.80;99.90;;;;;;5087173;28;20048;-80
2021/05/15 12:33:51;;;;;;;3.78;1.30;;;11.60;99.90;;;;;;5088921;28;20047;-77
2021/05/15 12:36:21;;;;;;;6.22;2.08;;;11.80;99.90;;;;;;5097666;27;20052;-80
2021/05/15 12:38:53;;;;;;;17.13;6.07;;;12.20;99.90;;;;;;5088254;28;20043;-74
2021/05/15 12:41:33;;;;;;;10.80;1.63;;;12.20;99.90;;;;;;5090907;28;20346;-80
2021/05/15 12:44:05;;;;;;;6.65;1.70;;;12.70;99.90;;;;;;5087315;28;20075;-75
2021/05/15 12:46:36;;;;;;;2.42;1.00;;;12.80;99.90;;;;;;5091373;28;20042;-76
2021/05/15 12:49:07;;;;;;;2.15;1.00;;;12.50;99.90;;;;;;5088930;28;20039;-72
2021/05/15 12:51:39;;;;;;;6.35;1.17;;;12.40;99.90;;;;;;5087847;28;20506;-75
2021/05/15 12:54:19;;;;;;;3.92;1.25;;;12.40;99.90;;;;;;5090345;28;20143;-71
2021/05/15 12:56:55;;;;;;;3.63;1.50;;;12.10;99.90;;;;;;5086489;28;20044;-72
2021/05/15 12:59:30;;;;;;;1.90;1.25;;;12.20;99.90;;;;;;5096267;27;20584;-69